sensor_id;sensor_type;location;lat;lon;timestamp;P1;durP1;ratioP1;P2;durP2;ratioP2
15153;SDS011;7677;41.896;25.004;2024-03-17T00:00:45;8.30;;;5.43;;
15153;SDS011;7677;41.896;25.004;2024-03-17T00:03:12;7.60;;;5.67;;
15153;SDS011;7677;41.896;25.004;2024-03-17T00:05:38;9.33;;;5.60;;
15153;SDS011;7677;41.896;25.004;2024-03-17T00:08:07;7.90;;;5.60;;
15153;SDS011;7677;41.896;25.004;2024-03-17T00:10:33;7.17;;;5.37;;
15153;SDS011;7677;41.896;25.004;2024-03-17T00:13:01;7.73;;;5.33;;
15153;SDS011;7677;41.896;25.004;2024-03-17T00:15:28;6.50;;;5.67;;
15153;SDS011;7677;41.896;25.004;2024-03-17T00:17:54;7.30;;;6.17;;
15153;SDS011;7677;41.896;25.004;2024-03-17T00:20:21;6.43;;;5.53;;
15153;SDS011;7677;41.896;25.004;2024-03-17T00:22:48;9.43;;;6.37;;
15153;SDS011;7677;41.896;25.004;2024-03-17T00:25:17;8.80;;;6.03;;
15153;SDS011;7677;41.896;25.004;2024-03-17T00:27:44;11.63;;;8.57;;
15153;SDS011;7677;41.896;25.004;2024-03-17T00:30:13;11.50;;;8.43;;
15153;SDS011;7677;41.896;25.004;2024-03-17T00:32:40;10.63;;;7.70;;
15153;SDS011;7677;41.896;25.004;2024-03-17T00:35:07;12.70;;;8.70;;
15153;SDS011;7677;41.896;25.004;2024-03-17T00:37:35;14.57;;;9.40;;
15153;SDS011;7677;41.896;25.004;2024-03-17T00:40:03;13.00;;;9.23;;
15153;SDS011;7677;41.896;25.004;2024-03-17T00:42:33;13.67;;;9.27;;
15153;SDS011;7677;41.896;25.004;2024-03-17T00:45:00;14.27;;;9.07;;
15153;SDS011;7677;41.896;25.004;2024-03-17T00:47:26;13.77;;;8.90;;
15153;SDS011;7677;41.896;25.004;2024-03-17T00:49:54;13.93;;;9.33;;
15153;SDS011;7677;41.896;25.004;2024-03-17T00:52:20;11.00;;;8.23;;
15153;SDS011;7677;41.896;25.004;2024-03-17T00:54:48;10.07;;;7.57;;
15153;SDS011;7677;41.896;25.004;2024-03-17T00:57:14;12.00;;;8.63;;
15153;SDS011;7677;41.896;25.004;2024-03-17T00:59:42;12.57;;;8.13;;
15153;SDS011;7677;41.896;25.004;2024-03-17T01:02:09;12.17;;;8.27;;
15153;SDS011;7677;41.896;25.004;2024-03-17T01:04:39;9.40;;;7.00;;
15153;SDS011;7677;41.896;25.004;2024-03-17T01:07:05;12.17;;;8.77;;
15153;SDS011;7677;41.896;25.004;2024-03-17T01:09:32;12.20;;;7.47;;
15153;SDS011;7677;41.896;25.004;2024-03-17T01:11:58;10.80;;;7.93;;
15153;SDS011;7677;41.896;25.004;2024-03-17T01:14:26;10.47;;;7.63;;
15153;SDS011;7677;41.896;25.004;2024-03-17T01:16:54;11.73;;;7.90;;
15153;SDS011;7677;41.896;25.004;2024-03-17T01:19:21;14.10;;;8.90;;
15153;SDS011;7677;41.896;25.004;2024-03-17T01:21:48;10.47;;;8.00;;
15153;SDS011;7677;41.896;25.004;2024-03-17T01:24:16;12.97;;;9.23;;
15153;SDS011;7677;41.896;25.004;2024-03-17T01:26:42;15.03;;;10.17;;
15153;SDS011;7677;41.896;25.004;2024-03-17T01:29:10;13.97;;;10.43;;
15153;SDS011;7677;41.896;25.004;2024-03-17T01:31:37;14.47;;;10.23;;
15153;SDS011;7677;41.896;25.004;2024-03-17T01:34:05;13.70;;;9.63;;
15153;SDS011;7677;41.896;25.004;2024-03-17T01:36:31;14.87;;;10.53;;
15153;SDS011;7677;41.896;25.004;2024-03-17T01:38:59;14.53;;;9.80;;
15153;SDS011;7677;41.896;25.004;2024-03-17T01:41:25;14.57;;;10.10;;
15153;SDS011;7677;41.896;25.004;2024-03-17T01:43:52;14.33;;;10.37;;
15153;SDS011;7677;41.896;25.004;2024-03-17T01:46:18;15.27;;;10.37;;
15153;SDS011;7677;41.896;25.004;2024-03-17T01:48:46;14.63;;;10.27;;
15153;SDS011;7677;41.896;25.004;2024-03-17T01:51:13;16.40;;;11.10;;
15153;SDS011;7677;41.896;25.004;2024-03-17T01:53:42;19.13;;;11.13;;
15153;SDS011;7677;41.896;25.004;2024-03-17T01:56:10;14.53;;;11.03;;
15153;SDS011;7677;41.896;25.004;2024-03-17T01:58:36;17.80;;;11.90;;
15153;SDS011;7677;41.896;25.004;2024-03-17T02:01:04;20.43;;;11.50;;
15153;SDS011;7677;41.896;25.004;2024-03-17T02:03:30;17.57;;;12.00;;
15153;SDS011;7677;41.896;25.004;2024-03-17T02:05:57;15.50;;;10.97;;
15153;SDS011;7677;41.896;25.004;2024-03-17T02:08:25;19.87;;;10.80;;
15153;SDS011;7677;41.896;25.004;2024-03-17T02:10:53;12.60;;;9.57;;
15153;SDS011;7677;41.896;25.004;2024-03-17T02:13:19;12.90;;;8.90;;
15153;SDS011;7677;41.896;25.004;2024-03-17T02:15:47;15.10;;;8.77;;
15153;SDS011;7677;41.896;25.004;2024-03-17T02:18:13;14.90;;;10.27;;
15153;SDS011;7677;41.896;25.004;2024-03-17T02:20:40;14.87;;;9.30;;
15153;SDS011;7677;41.896;25.004;2024-03-17T02:23:22;13.17;;;9.03;;
15153;SDS011;7677;41.896;25.004;2024-03-17T02:25:51;15.73;;;10.13;;
15153;SDS011;7677;41.896;25.004;2024-03-17T02:28:17;13.83;;;8.73;;
15153;SDS011;7677;41.896;25.004;2024-03-17T02:30:45;15.43;;;8.50;;
15153;SDS011;7677;41.896;25.004;2024-03-17T02:33:11;10.77;;;8.23;;
15153;SDS011;7677;41.896;25.004;2024-03-17T02:35:38;11.70;;;7.97;;
15153;SDS011;7677;41.896;25.004;2024-03-17T02:38:04;11.17;;;8.13;;
15153;SDS011;7677;41.896;25.004;2024-03-17T02:40:34;9.30;;;7.17;;
15153;SDS011;7677;41.896;25.004;2024-03-17T02:43:00;10.17;;;7.63;;
15153;SDS011;7677;41.896;25.004;2024-03-17T02:45:27;11.37;;;8.30;;
15153;SDS011;7677;41.896;25.004;2024-03-17T02:47:55;14.90;;;8.40;;
15153;SDS011;7677;41.896;25.004;2024-03-17T02:50:22;12.23;;;8.10;;
15153;SDS011;7677;41.896;25.004;2024-03-17T02:52:49;11.80;;;7.57;;
15153;SDS011;7677;41.896;25.004;2024-03-17T02:55:16;11.13;;;6.77;;
15153;SDS011;7677;41.896;25.004;2024-03-17T02:57:45;12.13;;;7.17;;
15153;SDS011;7677;41.896;25.004;2024-03-17T03:00:12;12.70;;;6.67;;
15153;SDS011;7677;41.896;25.004;2024-03-17T03:02:40;10.07;;;7.17;;
15153;SDS011;7677;41.896;25.004;2024-03-17T03:05:07;10.67;;;6.73;;
15153;SDS011;7677;41.896;25.004;2024-03-17T03:07:35;8.77;;;7.03;;
15153;SDS011;7677;41.896;25.004;2024-03-17T03:10:03;12.80;;;7.27;;
15153;SDS011;7677;41.896;25.004;2024-03-17T03:12:31;8.10;;;6.43;;
15153;SDS011;7677;41.896;25.004;2024-03-17T03:15:00;7.60;;;6.03;;
15153;SDS011;7677;41.896;25.004;2024-03-17T03:17:28;8.77;;;6.87;;
15153;SDS011;7677;41.896;25.004;2024-03-17T03:19:55;9.57;;;6.20;;
15153;SDS011;7677;41.896;25.004;2024-03-17T03:22:22;9.93;;;6.27;;
15153;SDS011;7677;41.896;25.004;2024-03-17T03:24:51;8.77;;;6.47;;
15153;SDS011;7677;41.896;25.004;2024-03-17T03:27:18;8.43;;;6.27;;
15153;SDS011;7677;41.896;25.004;2024-03-17T03:29:46;10.10;;;6.57;;
15153;SDS011;7677;41.896;25.004;2024-03-17T03:32:14;7.10;;;6.40;;
15153;SDS011;7677;41.896;25.004;2024-03-17T03:34:42;12.23;;;7.30;;
15153;SDS011;7677;41.896;25.004;2024-03-17T03:37:10;8.87;;;6.67;;
15153;SDS011;7677;41.896;25.004;2024-03-17T03:39:38;7.03;;;5.83;;
15153;SDS011;7677;41.896;25.004;2024-03-17T03:42:05;6.97;;;5.77;;
15153;SDS011;7677;41.896;25.004;2024-03-17T03:44:32;7.97;;;5.70;;
15153;SDS011;7677;41.896;25.004;2024-03-17T03:47:00;7.57;;;6.23;;
15153;SDS011;7677;41.896;25.004;2024-03-17T03:49:29;9.20;;;6.40;;
15153;SDS011;7677;41.896;25.004;2024-03-17T03:51:56;9.27;;;6.23;;
15153;SDS011;7677;41.896;25.004;2024-03-17T03:54:24;9.27;;;6.37;;
15153;SDS011;7677;41.896;25.004;2024-03-17T03:56:51;9.60;;;6.80;;
15153;SDS011;7677;41.896;25.004;2024-03-17T03:59:19;9.03;;;6.77;;
15153;SDS011;7677;41.896;25.004;2024-03-17T04:01:46;12.07;;;6.50;;
15153;SDS011;7677;41.896;25.004;2024-03-17T04:04:14;9.97;;;6.90;;
15153;SDS011;7677;41.896;25.004;2024-03-17T04:06:43;10.13;;;6.90;;
15153;SDS011;7677;41.896;25.004;2024-03-17T04:09:10;6.73;;;5.80;;
15153;SDS011;7677;41.896;25.004;2024-03-17T04:11:37;8.20;;;5.90;;
15153;SDS011;7677;41.896;25.004;2024-03-17T04:14:05;7.47;;;6.13;;
15153;SDS011;7677;41.896;25.004;2024-03-17T04:16:32;8.37;;;5.80;;
15153;SDS011;7677;41.896;25.004;2024-03-17T04:18:59;8.90;;;6.20;;
15153;SDS011;7677;41.896;25.004;2024-03-17T04:21:26;9.60;;;6.17;;
15153;SDS011;7677;41.896;25.004;2024-03-17T04:23:55;8.87;;;6.20;;
15153;SDS011;7677;41.896;25.004;2024-03-17T04:26:22;8.87;;;6.63;;
15153;SDS011;7677;41.896;25.004;2024-03-17T04:28:49;6.97;;;5.70;;
15153;SDS011;7677;41.896;25.004;2024-03-17T04:31:17;8.83;;;5.77;;
15153;SDS011;7677;41.896;25.004;2024-03-17T04:33:45;10.60;;;5.77;;
15153;SDS011;7677;41.896;25.004;2024-03-17T04:36:12;7.57;;;6.27;;
15153;SDS011;7677;41.896;25.004;2024-03-17T04:38:39;11.10;;;6.23;;
15153;SDS011;7677;41.896;25.004;2024-03-17T04:41:08;8.47;;;6.53;;
15153;SDS011;7677;41.896;25.004;2024-03-17T04:43:35;9.10;;;6.40;;
15153;SDS011;7677;41.896;25.004;2024-03-17T04:46:03;8.20;;;6.10;;
15153;SDS011;7677;41.896;25.004;2024-03-17T04:48:32;7.17;;;5.40;;
15153;SDS011;7677;41.896;25.004;2024-03-17T04:51:00;8.73;;;5.90;;
15153;SDS011;7677;41.896;25.004;2024-03-17T04:53:27;9.13;;;6.37;;
15153;SDS011;7677;41.896;25.004;2024-03-17T04:55:59;10.30;;;6.70;;
15153;SDS011;7677;41.896;25.004;2024-03-17T04:58:28;7.27;;;5.43;;
15153;SDS011;7677;41.896;25.004;2024-03-17T05:00:55;8.17;;;6.30;;
15153;SDS011;7677;41.896;25.004;2024-03-17T05:03:23;8.07;;;6.27;;
15153;SDS011;7677;41.896;25.004;2024-03-17T05:05:57;8.37;;;6.30;;
15153;SDS011;7677;41.896;25.004;2024-03-17T05:08:26;7.87;;;6.07;;
15153;SDS011;7677;41.896;25.004;2024-03-17T05:10:55;8.43;;;6.47;;
15153;SDS011;7677;41.896;25.004;2024-03-17T05:13:24;8.10;;;6.27;;
15153;SDS011;7677;41.896;25.004;2024-03-17T05:15:53;7.70;;;5.63;;
15153;SDS011;7677;41.896;25.004;2024-03-17T05:18:20;7.73;;;6.30;;
15153;SDS011;7677;41.896;25.004;2024-03-17T05:20:56;7.67;;;6.30;;
15153;SDS011;7677;41.896;25.004;2024-03-17T05:23:25;8.50;;;5.93;;
15153;SDS011;7677;41.896;25.004;2024-03-17T05:25:53;8.10;;;5.83;;
15153;SDS011;7677;41.896;25.004;2024-03-17T05:28:21;8.17;;;6.23;;
15153;SDS011;7677;41.896;25.004;2024-03-17T05:30:48;10.30;;;6.63;;
15153;SDS011;7677;41.896;25.004;2024-03-17T05:33:19;8.73;;;6.30;;
15153;SDS011;7677;41.896;25.004;2024-03-17T05:35:50;8.17;;;5.87;;
15153;SDS011;7677;41.896;25.004;2024-03-17T05:38:19;8.47;;;6.57;;
15153;SDS011;7677;41.896;25.004;2024-03-17T05:40:53;7.63;;;6.60;;
15153;SDS011;7677;41.896;25.004;2024-03-17T05:43:21;16.57;;;11.17;;
15153;SDS011;7677;41.896;25.004;2024-03-17T05:45:49;21.97;;;13.70;;
15153;SDS011;7677;41.896;25.004;2024-03-17T05:48:16;25.83;;;18.40;;
15153;SDS011;7677;41.896;25.004;2024-03-17T05:50:45;20.30;;;13.60;;
15153;SDS011;7677;41.896;25.004;2024-03-17T05:53:12;16.13;;;11.07;;
15153;SDS011;7677;41.896;25.004;2024-03-17T05:55:39;14.17;;;8.70;;
15153;SDS011;7677;41.896;25.004;2024-03-17T05:58:08;12.67;;;9.10;;
15153;SDS011;7677;41.896;25.004;2024-03-17T06:00:35;10.73;;;7.83;;
15153;SDS011;7677;41.896;25.004;2024-03-17T06:03:03;8.47;;;6.27;;
15153;SDS011;7677;41.896;25.004;2024-03-17T06:05:31;9.13;;;6.93;;
15153;SDS011;7677;41.896;25.004;2024-03-17T06:08:01;8.57;;;6.27;;
15153;SDS011;7677;41.896;25.004;2024-03-17T06:10:29;8.77;;;6.53;;
15153;SDS011;7677;41.896;25.004;2024-03-17T06:12:57;15.63;;;9.00;;
15153;SDS011;7677;41.896;25.004;2024-03-17T06:15:25;14.47;;;10.53;;
15153;SDS011;7677;41.896;25.004;2024-03-17T06:17:53;16.80;;;10.63;;
15153;SDS011;7677;41.896;25.004;2024-03-17T06:20:21;13.20;;;10.80;;
15153;SDS011;7677;41.896;25.004;2024-03-17T06:22:52;13.43;;;10.80;;
15153;SDS011;7677;41.896;25.004;2024-03-17T06:25:23;14.77;;;10.97;;
15153;SDS011;7677;41.896;25.004;2024-03-17T06:27:50;16.40;;;11.17;;
15153;SDS011;7677;41.896;25.004;2024-03-17T06:30:17;18.77;;;13.50;;
15153;SDS011;7677;41.896;25.004;2024-03-17T06:32:45;21.23;;;13.50;;
15153;SDS011;7677;41.896;25.004;2024-03-17T06:35:12;20.93;;;13.87;;
15153;SDS011;7677;41.896;25.004;2024-03-17T06:37:41;21.03;;;12.67;;
15153;SDS011;7677;41.896;25.004;2024-03-17T06:40:08;18.83;;;12.63;;
15153;SDS011;7677;41.896;25.004;2024-03-17T06:42:39;17.67;;;12.10;;
15153;SDS011;7677;41.896;25.004;2024-03-17T06:45:06;20.13;;;14.53;;
15153;SDS011;7677;41.896;25.004;2024-03-17T06:47:34;16.20;;;12.27;;
15153;SDS011;7677;41.896;25.004;2024-03-17T06:50:01;23.17;;;12.33;;
15153;SDS011;7677;41.896;25.004;2024-03-17T06:52:28;18.13;;;11.77;;
15153;SDS011;7677;41.896;25.004;2024-03-17T06:54:56;21.03;;;12.37;;
15153;SDS011;7677;41.896;25.004;2024-03-17T06:57:24;15.33;;;10.60;;
15153;SDS011;7677;41.896;25.004;2024-03-17T06:59:53;15.23;;;11.23;;
15153;SDS011;7677;41.896;25.004;2024-03-17T07:02:20;15.87;;;11.10;;
15153;SDS011;7677;41.896;25.004;2024-03-17T07:04:47;16.37;;;10.90;;
15153;SDS011;7677;41.896;25.004;2024-03-17T07:07:15;16.67;;;11.27;;
15153;SDS011;7677;41.896;25.004;2024-03-17T07:09:42;14.23;;;10.80;;
15153;SDS011;7677;41.896;25.004;2024-03-17T07:12:10;17.30;;;10.87;;
15153;SDS011;7677;41.896;25.004;2024-03-17T07:14:37;14.80;;;10.17;;
15153;SDS011;7677;41.896;25.004;2024-03-17T07:17:06;13.07;;;10.23;;
15153;SDS011;7677;41.896;25.004;2024-03-17T07:19:33;13.87;;;10.13;;
15153;SDS011;7677;41.896;25.004;2024-03-17T07:22:01;15.50;;;10.47;;
15153;SDS011;7677;41.896;25.004;2024-03-17T07:24:29;14.33;;;11.13;;
15153;SDS011;7677;41.896;25.004;2024-03-17T07:26:56;16.13;;;11.63;;
15153;SDS011;7677;41.896;25.004;2024-03-17T07:29:23;16.63;;;10.20;;
15153;SDS011;7677;41.896;25.004;2024-03-17T07:31:51;12.90;;;10.33;;
15153;SDS011;7677;41.896;25.004;2024-03-17T07:34:19;14.77;;;10.23;;
15153;SDS011;7677;41.896;25.004;2024-03-17T07:36:47;17.23;;;10.57;;
15153;SDS011;7677;41.896;25.004;2024-03-17T07:39:14;12.23;;;9.63;;
15153;SDS011;7677;41.896;25.004;2024-03-17T07:41:41;13.67;;;9.43;;
15153;SDS011;7677;41.896;25.004;2024-03-17T07:44:08;13.40;;;9.17;;
15153;SDS011;7677;41.896;25.004;2024-03-17T07:46:36;14.00;;;10.60;;
15153;SDS011;7677;41.896;25.004;2024-03-17T07:49:03;15.23;;;10.17;;
15153;SDS011;7677;41.896;25.004;2024-03-17T07:51:32;13.40;;;10.43;;
15153;SDS011;7677;41.896;25.004;2024-03-17T07:54:00;17.80;;;12.47;;
15153;SDS011;7677;41.896;25.004;2024-03-17T07:56:27;15.13;;;10.27;;
15153;SDS011;7677;41.896;25.004;2024-03-17T07:58:55;14.03;;;10.80;;
15153;SDS011;7677;41.896;25.004;2024-03-17T08:01:22;17.53;;;11.77;;
15153;SDS011;7677;41.896;25.004;2024-03-17T08:03:50;14.97;;;10.30;;
15153;SDS011;7677;41.896;25.004;2024-03-17T08:06:21;16.23;;;10.43;;
15153;SDS011;7677;41.896;25.004;2024-03-17T08:08:50;15.37;;;10.37;;
15153;SDS011;7677;41.896;25.004;2024-03-17T08:11:18;15.43;;;10.70;;
15153;SDS011;7677;41.896;25.004;2024-03-17T08:13:45;15.33;;;10.33;;
15153;SDS011;7677;41.896;25.004;2024-03-17T08:16:13;15.57;;;11.93;;
15153;SDS011;7677;41.896;25.004;2024-03-17T08:18:42;18.17;;;11.87;;
15153;SDS011;7677;41.896;25.004;2024-03-17T08:21:09;17.50;;;11.47;;
15153;SDS011;7677;41.896;25.004;2024-03-17T08:23:36;17.27;;;11.57;;
15153;SDS011;7677;41.896;25.004;2024-03-17T08:26:08;17.47;;;12.00;;
15153;SDS011;7677;41.896;25.004;2024-03-17T08:28:35;17.63;;;11.00;;
15153;SDS011;7677;41.896;25.004;2024-03-17T08:31:03;17.53;;;11.03;;
15153;SDS011;7677;41.896;25.004;2024-03-17T08:33:30;16.60;;;11.97;;
15153;SDS011;7677;41.896;25.004;2024-03-17T08:35:59;16.27;;;11.57;;
15153;SDS011;7677;41.896;25.004;2024-03-17T08:38:27;14.30;;;10.13;;
15153;SDS011;7677;41.896;25.004;2024-03-17T08:40:55;14.60;;;10.47;;
15153;SDS011;7677;41.896;25.004;2024-03-17T08:43:24;13.53;;;10.00;;
15153;SDS011;7677;41.896;25.004;2024-03-17T08:45:55;14.13;;;10.10;;
15153;SDS011;7677;41.896;25.004;2024-03-17T08:48:24;18.27;;;10.80;;
15153;SDS011;7677;41.896;25.004;2024-03-17T08:50:51;12.87;;;9.57;;
15153;SDS011;7677;41.896;25.004;2024-03-17T08:53:19;13.03;;;9.70;;
15153;SDS011;7677;41.896;25.004;2024-03-17T08:55:46;23.23;;;14.53;;
15153;SDS011;7677;41.896;25.004;2024-03-17T08:58:13;17.90;;;12.83;;
15153;SDS011;7677;41.896;25.004;2024-03-17T09:00:42;21.70;;;13.53;;
15153;SDS011;7677;41.896;25.004;2024-03-17T09:03:10;13.90;;;10.57;;
15153;SDS011;7677;41.896;25.004;2024-03-17T09:05:39;10.17;;;7.67;;
15153;SDS011;7677;41.896;25.004;2024-03-17T09:08:06;10.67;;;8.10;;
15153;SDS011;7677;41.896;25.004;2024-03-17T09:10:38;10.50;;;7.60;;
15153;SDS011;7677;41.896;25.004;2024-03-17T09:13:06;9.07;;;7.20;;
15153;SDS011;7677;41.896;25.004;2024-03-17T09:15:33;8.20;;;7.07;;
15153;SDS011;7677;41.896;25.004;2024-03-17T09:18:02;8.60;;;7.50;;
15153;SDS011;7677;41.896;25.004;2024-03-17T09:20:29;10.23;;;8.47;;
15153;SDS011;7677;41.896;25.004;2024-03-17T09:22:57;10.57;;;7.70;;
15153;SDS011;7677;41.896;25.004;2024-03-17T09:25:24;10.93;;;8.27;;
15153;SDS011;7677;41.896;25.004;2024-03-17T09:27:51;11.17;;;7.93;;
15153;SDS011;7677;41.896;25.004;2024-03-17T09:30:19;10.17;;;8.43;;
15153;SDS011;7677;41.896;25.004;2024-03-17T09:32:46;11.20;;;8.63;;
15153;SDS011;7677;41.896;25.004;2024-03-17T09:35:15;13.33;;;8.77;;
15153;SDS011;7677;41.896;25.004;2024-03-17T09:37:42;15.10;;;10.23;;
15153;SDS011;7677;41.896;25.004;2024-03-17T09:40:13;11.50;;;9.13;;
15153;SDS011;7677;41.896;25.004;2024-03-17T09:42:41;12.97;;;9.13;;
15153;SDS011;7677;41.896;25.004;2024-03-17T09:45:09;15.20;;;9.00;;
15153;SDS011;7677;41.896;25.004;2024-03-17T09:47:37;10.60;;;8.70;;
15153;SDS011;7677;41.896;25.004;2024-03-17T09:50:07;10.17;;;8.60;;
15153;SDS011;7677;41.896;25.004;2024-03-17T09:52:41;8.27;;;7.17;;
15153;SDS011;7677;41.896;25.004;2024-03-17T09:55:09;11.77;;;9.67;;
15153;SDS011;7677;41.896;25.004;2024-03-17T09:57:42;13.67;;;11.63;;
15153;SDS011;7677;41.896;25.004;2024-03-17T10:00:11;16.60;;;12.20;;
15153;SDS011;7677;41.896;25.004;2024-03-17T10:02:43;14.30;;;11.17;;
15153;SDS011;7677;41.896;25.004;2024-03-17T10:05:20;19.00;;;11.93;;
15153;SDS011;7677;41.896;25.004;2024-03-17T10:07:50;14.47;;;11.20;;
15153;SDS011;7677;41.896;25.004;2024-03-17T10:10:20;13.17;;;9.70;;
15153;SDS011;7677;41.896;25.004;2024-03-17T10:12:49;14.40;;;11.27;;
15153;SDS011;7677;41.896;25.004;2024-03-17T10:15:17;14.30;;;10.87;;
15153;SDS011;7677;41.896;25.004;2024-03-17T10:17:45;12.37;;;10.60;;
15153;SDS011;7677;41.896;25.004;2024-03-17T10:20:14;13.93;;;9.93;;
15153;SDS011;7677;41.896;25.004;2024-03-17T10:23:03;14.67;;;9.90;;
15153;SDS011;7677;41.896;25.004;2024-03-17T10:25:34;14.93;;;10.23;;
15153;SDS011;7677;41.896;25.004;2024-03-17T10:28:01;14.20;;;10.93;;
15153;SDS011;7677;41.896;25.004;2024-03-17T10:30:29;15.10;;;10.77;;
15153;SDS011;7677;41.896;25.004;2024-03-17T10:32:57;11.57;;;9.50;;
15153;SDS011;7677;41.896;25.004;2024-03-17T10:35:32;12.03;;;9.07;;
15153;SDS011;7677;41.896;25.004;2024-03-17T10:38:02;15.70;;;9.83;;
15153;SDS011;7677;41.896;25.004;2024-03-17T10:40:32;14.20;;;10.17;;
15153;SDS011;7677;41.896;25.004;2024-03-17T10:43:01;16.53;;;10.47;;
15153;SDS011;7677;41.896;25.004;2024-03-17T10:45:29;18.40;;;9.87;;
15153;SDS011;7677;41.896;25.004;2024-03-17T10:48:01;11.40;;;9.33;;
15153;SDS011;7677;41.896;25.004;2024-03-17T10:50:29;12.20;;;9.33;;
15153;SDS011;7677;41.896;25.004;2024-03-17T10:52:58;11.47;;;9.47;;
15153;SDS011;7677;41.896;25.004;2024-03-17T10:55:36;12.80;;;9.90;;
15153;SDS011;7677;41.896;25.004;2024-03-17T10:58:12;13.90;;;10.00;;
15153;SDS011;7677;41.896;25.004;2024-03-17T11:00:45;13.97;;;10.33;;
15153;SDS011;7677;41.896;25.004;2024-03-17T11:03:13;13.00;;;9.60;;
15153;SDS011;7677;41.896;25.004;2024-03-17T11:05:41;13.23;;;10.57;;
15153;SDS011;7677;41.896;25.004;2024-03-17T11:08:09;14.37;;;10.80;;
15153;SDS011;7677;41.896;25.004;2024-03-17T11:10:48;13.27;;;10.20;;
15153;SDS011;7677;41.896;25.004;2024-03-17T11:13:27;13.70;;;10.33;;
15153;SDS011;7677;41.896;25.004;2024-03-17T11:15:55;12.53;;;9.67;;
15153;SDS011;7677;41.896;25.004;2024-03-17T11:18:36;13.50;;;10.00;;
15153;SDS011;7677;41.896;25.004;2024-03-17T11:21:06;14.50;;;10.13;;
15153;SDS011;7677;41.896;25.004;2024-03-17T11:23:56;14.33;;;11.07;;
15153;SDS011;7677;41.896;25.004;2024-03-17T11:26:28;13.97;;;10.23;;
15153;SDS011;7677;41.896;25.004;2024-03-17T11:28:57;12.80;;;10.43;;
15153;SDS011;7677;41.896;25.004;2024-03-17T11:31:36;15.03;;;10.97;;
15153;SDS011;7677;41.896;25.004;2024-03-17T11:34:07;13.73;;;10.50;;
15153;SDS011;7677;41.896;25.004;2024-03-17T11:36:56;14.03;;;11.90;;
15153;SDS011;7677;41.896;25.004;2024-03-17T11:42:25;15.07;;;11.27;;
15153;SDS011;7677;41.896;25.004;2024-03-17T11:44:59;16.50;;;12.00;;
15153;SDS011;7677;41.896;25.004;2024-03-17T11:47:34;16.77;;;12.07;;
15153;SDS011;7677;41.896;25.004;2024-03-17T11:50:04;18.87;;;11.57;;
15153;SDS011;7677;41.896;25.004;2024-03-17T11:52:33;14.10;;;10.83;;
15153;SDS011;7677;41.896;25.004;2024-03-17T11:55:01;14.60;;;11.37;;
15153;SDS011;7677;41.896;25.004;2024-03-17T11:57:29;17.23;;;12.20;;
15153;SDS011;7677;41.896;25.004;2024-03-17T11:59:55;14.20;;;11.23;;
15153;SDS011;7677;41.896;25.004;2024-03-17T12:02:24;16.80;;;11.70;;
15153;SDS011;7677;41.896;25.004;2024-03-17T12:04:52;12.93;;;10.80;;
15153;SDS011;7677;41.896;25.004;2024-03-17T12:07:19;15.10;;;11.10;;
15153;SDS011;7677;41.896;25.004;2024-03-17T12:09:48;14.30;;;10.73;;
15153;SDS011;7677;41.896;25.004;2024-03-17T12:12:18;17.23;;;11.27;;
15153;SDS011;7677;41.896;25.004;2024-03-17T12:14:46;19.53;;;13.73;;
15153;SDS011;7677;41.896;25.004;2024-03-17T12:17:14;13.10;;;8.53;;
15153;SDS011;7677;41.896;25.004;2024-03-17T12:19:44;7.37;;;6.37;;
15153;SDS011;7677;41.896;25.004;2024-03-17T12:22:14;8.13;;;6.63;;
15153;SDS011;7677;41.896;25.004;2024-03-17T12:24:43;8.70;;;6.47;;
15153;SDS011;7677;41.896;25.004;2024-03-17T12:27:10;7.50;;;6.33;;
15153;SDS011;7677;41.896;25.004;2024-03-17T12:29:45;7.83;;;6.80;;
15153;SDS011;7677;41.896;25.004;2024-03-17T12:32:13;9.00;;;7.20;;
15153;SDS011;7677;41.896;25.004;2024-03-17T12:34:41;11.37;;;9.23;;
15153;SDS011;7677;41.896;25.004;2024-03-17T12:37:11;12.70;;;9.37;;
15153;SDS011;7677;41.896;25.004;2024-03-17T12:39:43;10.53;;;7.57;;
15153;SDS011;7677;41.896;25.004;2024-03-17T12:42:10;10.73;;;8.47;;
15153;SDS011;7677;41.896;25.004;2024-03-17T12:44:40;9.13;;;7.47;;
15153;SDS011;7677;41.896;25.004;2024-03-17T12:47:14;9.03;;;7.80;;
15153;SDS011;7677;41.896;25.004;2024-03-17T12:49:44;11.73;;;8.77;;
15153;SDS011;7677;41.896;25.004;2024-03-17T12:52:17;9.50;;;8.20;;
15153;SDS011;7677;41.896;25.004;2024-03-17T12:54:45;10.23;;;7.97;;
15153;SDS011;7677;41.896;25.004;2024-03-17T12:57:41;11.47;;;8.07;;
15153;SDS011;7677;41.896;25.004;2024-03-17T13:00:28;9.03;;;7.20;;
15153;SDS011;7677;41.896;25.004;2024-03-17T13:02:59;14.90;;;7.60;;
15153;SDS011;7677;41.896;25.004;2024-03-17T13:05:27;14.07;;;9.60;;
15153;SDS011;7677;41.896;25.004;2024-03-17T13:07:53;10.37;;;7.67;;
15153;SDS011;7677;41.896;25.004;2024-03-17T13:10:22;9.93;;;7.93;;
15153;SDS011;7677;41.896;25.004;2024-03-17T13:12:58;10.63;;;7.73;;
15153;SDS011;7677;41.896;25.004;2024-03-17T13:15:27;15.03;;;10.63;;
15153;SDS011;7677;41.896;25.004;2024-03-17T13:17:56;11.80;;;8.80;;
15153;SDS011;7677;41.896;25.004;2024-03-17T13:20:24;11.20;;;9.60;;
15153;SDS011;7677;41.896;25.004;2024-03-17T13:22:52;9.03;;;7.87;;
15153;SDS011;7677;41.896;25.004;2024-03-17T13:25:19;10.67;;;7.87;;
15153;SDS011;7677;41.896;25.004;2024-03-17T13:27:48;9.77;;;7.77;;
15153;SDS011;7677;41.896;25.004;2024-03-17T13:30:16;12.67;;;8.67;;
15153;SDS011;7677;41.896;25.004;2024-03-17T13:32:45;10.87;;;8.50;;
15153;SDS011;7677;41.896;25.004;2024-03-17T13:35:14;9.40;;;7.57;;
15153;SDS011;7677;41.896;25.004;2024-03-17T13:37:44;10.30;;;7.83;;
15153;SDS011;7677;41.896;25.004;2024-03-17T13:40:13;26.57;;;15.73;;
15153;SDS011;7677;41.896;25.004;2024-03-17T13:42:42;14.47;;;10.27;;
15153;SDS011;7677;41.896;25.004;2024-03-17T13:45:10;10.70;;;8.60;;
15153;SDS011;7677;41.896;25.004;2024-03-17T13:47:38;11.27;;;8.30;;
15153;SDS011;7677;41.896;25.004;2024-03-17T13:50:07;11.67;;;7.30;;
15153;SDS011;7677;41.896;25.004;2024-03-17T13:52:38;10.03;;;8.27;;
15153;SDS011;7677;41.896;25.004;2024-03-17T13:55:06;11.13;;;7.60;;
15153;SDS011;7677;41.896;25.004;2024-03-17T13:57:33;11.07;;;8.63;;
15153;SDS011;7677;41.896;25.004;2024-03-17T14:00:01;10.53;;;7.60;;
15153;SDS011;7677;41.896;25.004;2024-03-17T14:02:29;10.97;;;7.43;;
15153;SDS011;7677;41.896;25.004;2024-03-17T14:04:56;9.53;;;7.53;;
15153;SDS011;7677;41.896;25.004;2024-03-17T14:07:25;9.93;;;7.73;;
15153;SDS011;7677;41.896;25.004;2024-03-17T14:09:52;8.80;;;7.90;;
15153;SDS011;7677;41.896;25.004;2024-03-17T14:12:20;9.63;;;6.97;;
15153;SDS011;7677;41.896;25.004;2024-03-17T14:14:47;7.90;;;6.20;;
15153;SDS011;7677;41.896;25.004;2024-03-17T14:17:14;6.30;;;5.67;;
15153;SDS011;7677;41.896;25.004;2024-03-17T14:19:42;10.27;;;7.50;;
15153;SDS011;7677;41.896;25.004;2024-03-17T14:22:09;8.00;;;5.53;;
15153;SDS011;7677;41.896;25.004;2024-03-17T14:24:37;7.73;;;7.00;;
15153;SDS011;7677;41.896;25.004;2024-03-17T14:27:07;6.77;;;5.90;;
15153;SDS011;7677;41.896;25.004;2024-03-17T14:29:34;7.33;;;6.13;;
15153;SDS011;7677;41.896;25.004;2024-03-17T14:32:03;6.33;;;5.57;;
15153;SDS011;7677;41.896;25.004;2024-03-17T14:34:30;9.13;;;6.83;;
15153;SDS011;7677;41.896;25.004;2024-03-17T14:37:01;10.23;;;6.97;;
15153;SDS011;7677;41.896;25.004;2024-03-17T14:39:29;8.50;;;6.00;;
15153;SDS011;7677;41.896;25.004;2024-03-17T14:41:58;7.93;;;6.57;;
15153;SDS011;7677;41.896;25.004;2024-03-17T14:44:25;8.47;;;6.23;;